Time;durP1;ratioP1;P1;durP2;ratioP2;P2;SDS_P1;SDS_P2;PMS_P1;PMS_P2;Temp;Humidity;BMP_temperature;BMP_pressure;BME280_temperature;BME280_humidity;BME280_pressure;Samples;Min_cycle;Max_cycle;Signal;HPM_P1;HPM_P2
2021/05/21 00:00:24;;;;;;;1.67;1.57;;;;;;;11.37;69.54;96617.50;5033435;28;20230;-65
2021/05/21 00:02:49;;;;;;;1.27;1.17;;;;;;;11.32;69.60;96607.69;5034778;28;20335;-64
2021/05/21 00:05:15;;;;;;;1.20;1.20;;;;;;;11.44;69.17;96600.56;5034389;28;20189;-63
2021/05/21 00:07:40;;;;;;;1.93;1.57;;;;;;;11.33;69.57;96611.94;5033153;28;21095;-63
2021/05/21 00:10:06;;;;;;;2.07;1.30;;;;;;;11.24;70.57;96603.66;5034964;28;20183;-64
2021/05/21 00:12:32;;;;;;;1.57;1.47;;;;;;;11.29;70.31;96612.63;5034151;28;20218;-64
2021/05/21 00:14:58;;;;;;;1.10;1.10;;;;;;;11.35;70.18;96599.38;5034266;28;20214;-64
2021/05/21 00:17:23;;;;;;;4.40;1.20;;;;;;;11.24;70.45;96597.59;5034086;28;20206;-66
2021/05/21 00:19:49;;;;;;;1.43;1.40;;;;;;;11.22;70.64;96603.06;5034281;28;20228;-64
2021/05/21 00:22:14;;;;;;;1.20;1.20;;;;;;;11.24;70.57;96598.41;5034535;28;20538;-64
2021/05/21 00:24:40;;;;;;;1.47;1.30;;;;;;;11.21;70.55;96596.22;5033478;28;20179;-64
2021/05/21 00:27:05;;;;;;;1.40;1.30;;;;;;;11.19;70.83;96594.88;5034243;28;20663;-64
2021/05/21 00:29:31;;;;;;;1.30;1.30;;;;;;;11.22;70.65;96584.72;5033797;28;20178;-64
2021/05/21 00:31:56;;;;;;;1.40;1.30;;;;;;;11.20;70.67;96586.75;5016746;28;20546;-64
2021/05/21 00:34:21;;;;;;;1.17;1.17;;;;;;;11.17;70.96;96573.34;5016174;28;20175;-65
2021/05/21 00:36:47;;;;;;;1.33;1.33;;;;;;;11.23;70.64;96567.94;5033598;28;20546;-64
2021/05/21 00:39:12;;;;;;;1.17;1.17;;;;;;;11.15;70.38;96570.13;5034093;28;20201;-64
2021/05/21 00:41:38;;;;;;;1.30;1.20;;;;;;;11.24;69.54;96561.66;5033185;28;20202;-64
2021/05/21 00:44:03;;;;;;;1.87;1.67;;;;;;;11.18;69.66;96556.56;5016547;28;20305;-64
2021/05/21 00:46:28;;;;;;;1.87;1.50;;;;;;;11.21;69.75;96554.25;5033303;28;20186;-65
2021/05/21 00:48:54;;;;;;;1.67;1.27;;;;;;;11.19;68.97;96564.22;5016346;28;20615;-64
2021/05/21 00:51:19;;;;;;;1.37;1.27;;;;;;;11.21;68.72;96556.09;5033453;28;20209;-64
2021/05/21 00:53:45;;;;;;;2.67;1.60;;;;;;;11.09;68.61;96552.75;5015513;28;20247;-64
2021/05/21 00:56:11;;;;;;;1.50;1.30;;;;;;;11.22;67.42;96557.69;5033692;28;20175;-64
2021/05/21 00:58:37;;;;;;;1.17;1.07;;;;;;;11.23;67.69;96543.53;5032884;28;20244;-64
2021/05/21 01:01:03;;;;;;;1.30;1.00;;;;;;;11.12;67.96;96532.06;5031551;28;20722;-64
2021/05/21 01:03:29;;;;;;;1.40;1.30;;;;;;;11.28;67.14;96535.75;5032622;28;20632;-65
2021/05/21 01:05:54;;;;;;;1.10;1.10;;;;;;;11.12;68.14;96533.91;5033358;28;20181;-64
2021/05/21 01:08:19;;;;;;;1.13;1.13;;;;;;;11.26;67.80;96532.56;5015732;28;20269;-64
2021/05/21 01:10:45;;;;;;;1.60;1.20;;;;;;;11.34;67.25;96516.44;5032802;28;20321;-64
2021/05/21 01:13:11;;;;;;;1.47;1.17;;;;;;;11.29;67.02;96507.69;5033363;28;20636;-64
2021/05/21 01:15:38;;;;;;;1.00;1.00;;;;;;;11.31;67.05;96508.25;5032554;28;20209;-64
2021/05/21 01:18:06;;;;;;;1.53;1.20;;;;;;;11.26;67.25;96478.25;5033509;28;20178;-64
2021/05/21 01:20:32;;;;;;;1.37;1.30;;;;;;;11.16;67.65;96500.91;5032163;28;20560;-64
2021/05/21 01:22:57;;;;;;;2.83;1.03;;;;;;;11.11;67.92;96508.69;5033542;28;20193;-64
2021/05/21 01:25:23;;;;;;;1.23;1.13;;;;;;;11.16;67.34;96496.47;5033290;28;20182;-65
2021/05/21 01:27:50;;;;;;;2.77;1.07;;;;;;;11.08;67.59;96509.97;5014881;28;20674;-64
2021/05/21 01:30:16;;;;;;;1.23;1.13;;;;;;;11.17;67.35;96503.31;5017251;28;20179;-64
2021/05/21 01:32:45;;;;;;;1.30;1.30;;;;;;;11.15;67.16;96504.56;5032116;28;20206;-64
2021/05/21 01:35:10;;;;;;;1.47;1.17;;;;;;;11.03;67.47;96498.59;5032621;28;20256;-64
2021/05/21 01:37:42;;;;;;;2.83;1.10;;;;;;;10.92;68.08;96510.75;5032204;28;20636;-64
2021/05/21 01:40:09;;;;;;;1.50;1.40;;;;;;;10.95;67.73;96507.63;5032959;28;20221;-63
2021/05/21 01:42:34;;;;;;;1.10;1.10;;;;;;;11.02;67.32;96500.44;5022306;28;20200;-64
2021/05/21 01:44:59;;;;;;;1.20;1.10;;;;;;;10.90;67.92;96502.31;5033090;28;20182;-64
2021/05/21 01:47:25;;;;;;;1.63;1.40;;;;;;;11.02;67.16;96494.38;5032248;28;20187;-65
2021/05/21 01:49:50;;;;;;;1.47;1.40;;;;;;;11.03;66.99;96486.28;5032270;28;20229;-64
2021/05/21 01:52:16;;;;;;;1.30;1.20;;;;;;;10.98;67.54;96485.41;5032646;28;20222;-64
2021/05/21 01:54:41;;;;;;;1.30;1.20;;;;;;;10.96;67.73;96490.88;5031863;28;20186;-64
2021/05/21 01:57:07;;;;;;;1.37;1.30;;;;;;;11.04;67.37;96485.22;5032688;28;20193;-63
2021/05/21 01:59:32;;;;;;;1.10;1.10;;;;;;;11.08;67.13;96486.38;5031121;28;20191;-64
2021/05/21 02:01:58;;;;;;;1.17;1.10;;;;;;;11.08;66.96;96483.75;5032458;28;20250;-64
2021/05/21 02:04:32;;;;;;;1.23;1.23;;;;;;;11.09;67.35;96480.06;5014628;28;20690;-64
2021/05/21 02:06:58;;;;;;;1.10;1.10;;;;;;;11.01;67.17;96475.22;5032046;28;20193;-63
2021/05/21 02:09:23;;;;;;;1.20;1.10;;;;;;;10.97;67.38;96474.13;5031771;28;20189;-64
2021/05/21 02:11:49;;;;;;;1.00;1.00;;;;;;;10.98;67.25;96469.69;5031795;28;20182;-63
2021/05/21 02:14:15;;;;;;;1.00;1.00;;;;;;;11.04;66.89;96473.94;5032406;28;20198;-63
2021/05/21 02:16:40;;;;;;;1.10;1.10;;;;;;;11.02;66.91;96463.72;5031523;28;20190;-63
2021/05/21 02:19:06;;;;;;;0.97;0.97;;;;;;;10.99;66.36;96466.00;5032443;28;20195;-63
2021/05/21 02:21:34;;;;;;;1.03;1.03;;;;;;;10.97;66.23;96457.59;5031273;28;20600;-63
2021/05/21 02:24:00;;;;;;;1.10;1.10;;;;;;;10.97;66.38;96455.75;5015114;28;20183;-63
2021/05/21 02:26:26;;;;;;;1.20;1.10;;;;;;;10.94;66.72;96444.94;5031610;28;20640;-65
2021/05/21 02:28:52;;;;;;;3.47;1.53;;;;;;;10.88;66.91;96440.63;5032214;28;20190;-63
2021/05/21 02:31:18;;;;;;;2.13;1.20;;;;;;;10.87;66.98;96439.06;5031591;28;20236;-63
2021/05/21 02:33:43;;;;;;;2.77;1.20;;;;;;;10.84;67.34;96441.13;5030838;28;20191;-63
2021/05/21 02:36:09;;;;;;;1.03;1.00;;;;;;;10.81;67.63;96443.44;5031547;28;20183;-63
2021/05/21 02:38:34;;;;;;;1.10;1.10;;;;;;;10.88;67.25;96436.19;5031047;28;20182;-63
2021/05/21 02:40:59;;;;;;;1.00;1.00;;;;;;;10.78;67.43;96428.16;5031703;28;20218;-63
2021/05/21 02:43:25;;;;;;;1.97;1.50;;;;;;;10.76;67.24;96425.75;5013917;28;20293;-65
2021/05/21 02:45:50;;;;;;;1.00;1.00;;;;;;;10.66;67.73;96428.22;5030560;28;20748;-64
2021/05/21 02:48:15;;;;;;;1.00;1.00;;;;;;;10.68;67.90;96422.75;5031748;28;20198;-64
2021/05/21 02:50:42;;;;;;;1.10;1.10;;;;;;;10.83;67.21;96423.00;5031078;28;20218;-63
2021/05/21 02:53:08;;;;;;;1.13;1.10;;;;;;;10.74;67.37;96414.75;5031782;28;20543;-63
2021/05/21 02:55:34;;;;;;;1.13;1.13;;;;;;;10.82;66.87;96403.84;5030658;28;20189;-64
2021/05/21 02:58:00;;;;;;;1.10;1.10;;;;;;;10.84;66.70;96409.66;5013554;28;20670;-63
2021/05/21 03:00:26;;;;;;;1.23;1.13;;;;;;;10.74;66.96;96406.06;5025564;28;20174;-64
2021/05/21 03:02:51;;;;;;;1.00;1.00;;;;;;;10.71;67.54;96402.09;5031206;28;20236;-63
2021/05/21 03:05:22;;;;;;;0.93;0.93;;;;;;;10.78;67.18;96407.19;5031432;28;20530;-63
2021/05/21 03:07:53;;;;;;;1.00;1.00;;;;;;;10.80;67.09;96405.94;5030248;28;20244;-63
2021/05/21 03:10:20;;;;;;;1.00;1.00;;;;;;;10.72;67.55;96400.25;5031567;28;20281;-63
2021/05/21 03:12:45;;;;;;;0.93;0.93;;;;;;;10.72;67.64;96402.88;5030787;28;20245;-63
2021/05/21 03:15:11;;;;;;;1.00;1.00;;;;;;;10.76;67.61;96396.94;5031425;28;20194;-63
2021/05/21 03:17:36;;;;;;;1.37;1.20;;;;;;;10.74;67.23;96393.78;5030706;28;20544;-63
2021/05/21 03:20:02;;;;;;;1.10;1.10;;;;;;;10.64;67.59;96382.31;5030654;28;20205;-64
2021/05/21 03:22:28;;;;;;;1.00;1.00;;;;;;;10.68;67.65;96386.06;5013570;28;20194;-64
2021/05/21 03:24:53;;;;;;;0.90;0.90;;;;;;;10.65;67.63;96374.19;5029970;28;20186;-63
2021/05/21 03:27:18;;;;;;;1.03;1.03;;;;;;;10.62;68.00;96366.81;5030897;28;20690;-63
2021/05/21 03:29:44;;;;;;;1.10;1.10;;;;;;;10.65;67.80;96358.47;5030345;28;20194;-64
2021/05/21 03:32:12;;;;;;;1.00;1.00;;;;;;;10.69;67.73;96351.75;5031111;28;20660;-64
2021/05/21 03:34:37;;;;;;;1.00;1.00;;;;;;;10.69;67.09;96350.94;5012253;28;20705;-64
2021/05/21 03:37:03;;;;;;;1.20;1.20;;;;;;;10.68;67.33;96358.00;5031263;28;20285;-63
2021/05/21 03:39:28;;;;;;;1.20;1.10;;;;;;;10.62;67.26;96356.34;5013158;28;20265;-65
2021/05/21 03:41:53;;;;;;;1.20;1.20;;;;;;;10.63;67.48;96360.56;5030829;28;20570;-63
2021/05/21 03:44:19;;;;;;;1.10;1.03;;;;;;;10.62;67.59;96355.53;5030141;28;20236;-64
2021/05/21 03:46:44;;;;;;;1.00;1.00;;;;;;;10.56;67.45;96343.38;5030153;28;20209;-64
2021/05/21 03:49:12;;;;;;;1.00;1.00;;;;;;;10.62;67.25;96356.34;5030749;28;20316;-64
2021/05/21 03:51:37;;;;;;;1.00;1.00;;;;;;;10.59;67.53;96359.41;5029907;28;20191;-63
2021/05/21 03:54:03;;;;;;;1.27;1.20;;;;;;;10.58;67.70;96357.84;5030885;28;20179;-63
2021/05/21 03:56:29;;;;;;;1.03;1.03;;;;;;;10.55;67.70;96362.75;5030009;28;20688;-64
2021/05/21 03:58:56;;;;;;;1.20;1.20;;;;;;;10.55;67.63;96353.06;5030228;28;20269;-63
2021/05/21 04:01:24;;;;;;;1.10;1.10;;;;;;;10.59;67.87;96354.19;5012904;28;20770;-64
2021/05/21 04:03:49;;;;;;;1.10;1.07;;;;;;;10.68;67.41;96355.41;5029944;28;20816;-63
2021/05/21 04:06:14;;;;;;;3.27;1.20;;;;;;;10.73;66.76;96359.91;5030953;28;20190;-63
2021/05/21 04:08:41;;;;;;;1.07;1.07;;;;;;;10.68;67.16;96354.59;5011178;28;20185;-63
2021/05/21 04:11:06;;;;;;;1.20;1.20;;;;;;;10.61;67.91;96349.50;5031076;28;20195;-63
2021/05/21 04:13:32;;;;;;;1.30;1.20;;;;;;;10.74;67.19;96349.22;5030281;28;20265;-63
2021/05/21 04:15:57;;;;;;;2.20;1.10;;;;;;;10.70;67.37;96340.22;5030556;28;20186;-63
2021/05/21 04:18:23;;;;;;;1.10;1.10;;;;;;;10.79;66.36;96344.03;5030443;28;20222;-63
2021/05/21 04:20:48;;;;;;;1.00;0.80;;;;;;;10.76;66.67;96333.22;5029776;28;20198;-63
2021/05/21 04:23:13;;;;;;;1.10;1.10;;;;;;;10.87;66.19;96331.56;5030447;28;20657;-63
2021/05/21 04:25:39;;;;;;;1.10;1.10;;;;;;;10.77;66.39;96325.13;5030004;28;20191;-63
2021/05/21 04:28:04;;;;;;;1.03;1.03;;;;;;;10.85;66.10;96323.94;5030618;28;20189;-64
2021/05/21 04:30:29;;;;;;;1.43;1.33;;;;;;;10.90;65.65;96317.97;5030029;28;20182;-64
2021/05/21 04:32:55;;;;;;;1.00;1.00;;;;;;;10.79;66.18;96324.91;5016314;28;20183;-63
2021/05/21 04:35:21;;;;;;;0.90;0.90;;;;;;;10.93;66.22;96320.91;5031437;28;20527;-63
2021/05/21 04:37:47;;;;;;;0.90;0.90;;;;;;;10.94;66.14;96329.56;5033647;28;20189;-63
2021/05/21 04:40:13;;;;;;;0.90;0.90;;;;;;;10.93;66.02;96320.91;5033535;28;20655;-64
2021/05/21 04:42:38;;;;;;;0.77;0.77;;;;;;;11.04;65.79;96321.84;5033559;28;20178;-63
2021/05/21 04:45:06;;;;;;;1.00;1.00;;;;;;;11.02;65.72;96321.31;5016396;28;20201;-63
2021/05/21 04:47:32;;;;;;;0.90;0.90;;;;;;;11.11;65.34;96323.28;5033455;28;20546;-65
2021/05/21 04:49:57;;;;;;;1.00;1.00;;;;;;;11.16;65.18;96323.34;5034246;28;20178;-63
2021/05/21 04:52:22;;;;;;;1.07;1.07;;;;;;;11.24;64.82;96322.16;5033108;28;20198;-63
2021/05/21 04:54:48;;;;;;;1.00;1.00;;;;;;;11.26;64.90;96320.84;5015337;28;21002;-64
2021/05/21 04:57:13;;;;;;;0.80;0.80;;;;;;;11.25;64.93;96313.25;5033325;28;20209;-62
2021/05/21 04:59:39;;;;;;;0.80;0.80;;;;;;;11.25;65.13;96308.78;5014650;28;20183;-63
2021/05/21 05:02:04;;;;;;;0.80;0.80;;;;;;;11.39;64.99;96300.56;5033485;28;20352;-63
2021/05/21 05:04:30;;;;;;;0.93;0.87;;;;;;;11.38;65.11;96299.75;5032996;28;20187;-66
2021/05/21 05:06:55;;;;;;;0.70;0.70;;;;;;;11.43;64.43;96305.06;5033249;28;20175;-64
2021/05/21 05:09:20;;;;;;;0.90;0.90;;;;;;;11.65;63.99;96292.75;5033071;28;20241;-65
2021/05/21 05:11:46;;;;;;;0.80;0.80;;;;;;;11.80;63.12;96291.38;5032607;28;20189;-64
2021/05/21 05:14:12;;;;;;;1.00;1.00;;;;;;;11.80;63.49;96288.75;5033731;28;20186;-64
2021/05/21 05:16:41;;;;;;;0.70;0.70;;;;;;;11.88;63.04;96286.47;5032900;28;20190;-65
2021/05/21 05:19:08;;;;;;;0.97;0.87;;;;;;;11.99;62.28;96287.34;5033559;28;20186;-64
2021/05/21 05:21:38;;;;;;;0.80;0.80;;;;;;;11.96;62.30;96286.03;5032735;28;20203;-66
2021/05/21 05:24:04;;;;;;;0.90;0.90;;;;;;;12.02;61.77;96279.78;5033339;28;20316;-62
2021/05/21 05:26:31;;;;;;;0.80;0.80;;;;;;;12.08;61.70;96275.38;5032947;28;20309;-65
2021/05/21 05:28:57;;;;;;;2.13;0.77;;;;;;;12.20;61.76;96285.75;5032703;28;20553;-65
2021/05/21 05:31:23;;;;;;;0.90;0.90;;;;;;;12.32;61.28;96270.59;5033345;28;20199;-64
2021/05/21 05:33:48;;;;;;;0.80;0.80;;;;;;;12.34;60.43;96261.44;5032159;28;20545;-65
2021/05/21 05:36:14;;;;;;;1.07;0.97;;;;;;;12.41;60.70;96262.03;5033047;28;20183;-62
2021/05/21 05:38:39;;;;;;;1.60;0.80;;;;;;;12.50;60.64;96257.06;5032461;28;20187;-63
2021/05/21 05:41:05;;;;;;;4.57;0.83;;;;;;;12.47;60.67;96261.03;5015063;28;20527;-63
2021/05/21 05:43:30;;;;;;;0.70;0.70;;;;;;;12.56;60.36;96260.53;5032431;28;20202;-65
2021/05/21 05:45:56;;;;;;;1.23;0.90;;;;;;;12.66;60.03;96250.88;5014784;28;20190;-65
2021/05/21 05:48:21;;;;;;;0.70;0.70;;;;;;;12.71;59.19;96250.13;5014494;28;20214;-64
2021/05/21 05:50:48;;;;;;;0.80;0.80;;;;;;;12.72;59.51;96249.88;5031941;28;20214;-64
2021/05/21 05:53:14;;;;;;;2.63;0.80;;;;;;;12.82;58.98;96242.06;5032994;28;20186;-67
2021/05/21 05:55:43;;;;;;;1.13;0.70;;;;;;;12.76;59.61;96250.94;5022807;28;20553;-66
2021/05/21 05:58:09;;;;;;;0.70;0.70;;;;;;;12.96;59.31;96260.81;5032317;28;20193;-68
2021/05/21 06:00:35;;;;;;;0.80;0.80;;;;;;;13.03;59.00;96252.72;5013551;28;20277;-66
2021/05/21 06:03:12;;;;;;;0.80;0.80;;;;;;;13.17;57.69;96251.22;5015622;28;20237;-66
2021/05/21 06:05:38;;;;;;;0.83;0.83;;;;;;;13.22;57.83;96252.03;5031442;28;20706;-66
2021/05/21 06:08:06;;;;;;;0.70;0.70;;;;;;;13.41;57.54;96251.59;5031977;28;20277;-66
2021/05/21 06:10:33;;;;;;;1.13;0.60;;;;;;;13.41;57.37;96247.13;5032205;28;20220;-69
2021/05/21 06:13:06;;;;;;;0.70;0.70;;;;;;;13.51;57.42;96243.75;5032327;28;20190;-66
2021/05/21 06:15:33;;;;;;;3.70;0.80;;;;;;;13.60;56.67;96239.56;5032034;28;20179;-68
2021/05/21 06:18:00;;;;;;;0.83;0.83;;;;;;;13.64;57.06;96240.63;5032372;28;20643;-66
2021/05/21 06:20:27;;;;;;;1.17;0.80;;;;;;;13.74;56.75;96246.72;5032315;28;20602;-66
2021/05/21 06:22:53;;;;;;;0.77;0.70;;;;;;;13.83;56.95;96238.31;5031465;28;20199;-66
2021/05/21 06:25:23;;;;;;;1.00;0.83;;;;;;;13.78;57.09;96239.09;5031701;28;20183;-66
2021/05/21 06:27:49;;;;;;;0.60;0.60;;;;;;;14.00;56.87;96242.28;5013514;28;20274;-67
2021/05/21 06:30:15;;;;;;;0.80;0.80;;;;;;;14.31;69.08;96242.34;5025808;28;20182;-69
2021/05/21 06:32:43;;;;;;;0.77;0.70;;;;;;;14.87;62.22;96237.84;5012024;28;20598;-68
2021/05/21 06:35:10;;;;;;;2.33;0.67;;;;;;;15.11;56.97;96238.84;5016472;28;20643;-68
2021/05/21 06:37:36;;;;;;;0.90;0.90;;;;;;;15.07;53.54;96234.38;5030331;28;20198;-70
2021/05/21 06:40:03;;;;;;;0.87;0.87;;;;;;;14.77;54.33;96228.09;5031781;28;20178;-68
2021/05/21 06:42:28;;;;;;;0.97;0.70;;;;;;;14.83;54.35;96231.50;5031345;28;20260;-70
2021/05/21 06:44:54;;;;;;;0.80;0.80;;;;;;;14.67;54.53;96233.38;5030344;28;20407;-66
2021/05/21 06:47:19;;;;;;;0.80;0.80;;;;;;;14.59;53.97;96226.03;5031229;28;20277;-66
2021/05/21 06:49:47;;;;;;;2.27;0.90;;;;;;;14.38;54.60;96227.84;5030548;28;20189;-66
2021/05/21 06:52:12;;;;;;;0.70;0.70;;;;;;;14.41;54.90;96229.97;5031812;28;20191;-66
2021/05/21 06:54:38;;;;;;;0.70;0.70;;;;;;;14.68;54.34;96229.69;5030649;28;20182;-66
2021/05/21 06:57:03;;;;;;;1.43;0.80;;;;;;;14.74;54.51;96223.34;5013241;28;20498;-66
2021/05/21 06:59:29;;;;;;;0.77;0.77;;;;;;;14.79;54.53;96222.56;5031475;28;20191;-67
2021/05/21 07:01:54;;;;;;;2.20;0.90;;;;;;;14.59;56.25;96217.31;5030215;28;20231;-66
2021/05/21 07:04:20;;;;;;;0.77;0.77;;;;;;;14.45;56.68;96211.78;5031665;28;20206;-66
2021/05/21 07:06:45;;;;;;;1.73;0.90;;;;;;;14.54;56.76;96210.97;5030629;28;20249;-67
2021/05/21 07:09:11;;;;;;;0.80;0.80;;;;;;;14.68;56.36;96213.06;5017259;28;20273;-67
2021/05/21 07:11:36;;;;;;;1.00;1.00;;;;;;;14.74;55.78;96201.47;5013294;28;20567;-69
2021/05/21 07:14:03;;;;;;;0.60;0.60;;;;;;;14.54;56.35;96199.66;5031507;28;20210;-65
2021/05/21 07:16:29;;;;;;;0.60;0.60;;;;;;;14.54;56.51;96204.94;5031267;28;20256;-65
2021/05/21 07:18:55;;;;;;;0.93;0.70;;;;;;;14.46;56.70;96208.88;5030446;28;20273;-64
2021/05/21 07:21:21;;;;;;;0.80;0.80;;;;;;;14.44;57.17;96197.00;5013072;28;20341;-65
2021/05/21 07:23:46;;;;;;;0.90;0.87;;;;;;;14.44;57.00;96200.44;5030846;28;20193;-66
2021/05/21 07:26:12;;;;;;;1.47;0.80;;;;;;;14.47;57.36;96207.03;5031289;28;20714;-65
2021/05/21 07:28:37;;;;;;;1.40;0.90;;;;;;;14.42;57.68;96207.03;5030651;28;20215;-65
2021/05/21 07:31:03;;;;;;;0.90;0.90;;;;;;;14.52;58.34;96214.94;5031100;28;20202;-65
2021/05/21 07:33:30;;;;;;;1.10;0.77;;;;;;;14.54;58.15;96205.69;5030858;28;20218;-65
2021/05/21 07:35:55;;;;;;;1.17;0.80;;;;;;;14.39;58.50;96195.16;5012455;28;20182;-67
2021/05/21 07:38:22;;;;;;;0.97;0.97;;;;;;;14.37;57.98;96194.66;5031034;28;20190;-66
2021/05/21 07:40:47;;;;;;;0.70;0.70;;;;;;;14.56;55.69;96198.31;5030303;28;20202;-66
2021/05/21 07:43:12;;;;;;;1.00;1.00;;;;;;;14.49;55.71;96197.78;5030670;28;20225;-66
2021/05/21 07:45:38;;;;;;;0.67;0.67;;;;;;;14.42;54.86;96204.41;5030087;28;20539;-66
2021/05/21 07:48:04;;;;;;;0.70;0.70;;;;;;;14.41;54.83;96203.59;5030914;28;20237;-65
2021/05/21 07:50:29;;;;;;;0.83;0.83;;;;;;;14.48;54.48;96190.97;5030443;28;20636;-66
2021/05/21 07:52:55;;;;;;;1.00;0.70;;;;;;;14.44;54.79;96192.53;5029874;28;20191;-66
2021/05/21 07:55:20;;;;;;;0.73;0.73;;;;;;;14.50;54.12;96207.28;5030803;28;20607;-66
2021/05/21 07:57:45;;;;;;;1.33;0.67;;;;;;;14.57;53.70;96201.75;5029776;28;20194;-66
2021/05/21 08:00:11;;;;;;;1.00;0.93;;;;;;;14.73;53.23;96198.03;5030665;28;20252;-66
2021/05/21 08:02:37;;;;;;;0.70;0.70;;;;;;;14.83;53.57;96199.84;5030269;28;20241;-66
2021/05/21 08:05:04;;;;;;;0.80;0.80;;;;;;;14.69;53.45;96199.63;5030008;28;20269;-66
2021/05/21 08:07:30;;;;;;;2.30;0.63;;;;;;;14.81;53.46;96191.44;5030483;28;20194;-66
2021/05/21 08:09:55;;;;;;;0.70;0.70;;;;;;;14.83;53.31;96190.09;5030082;28;20730;-66
2021/05/21 08:12:21;;;;;;;0.80;0.80;;;;;;;14.81;53.75;96186.94;5034441;28;20678;-66
2021/05/21 08:14:49;;;;;;;0.60;0.60;;;;;;;14.82;53.33;96179.81;5033664;28;20221;-66
2021/05/21 08:17:15;;;;;;;0.60;0.60;;;;;;;14.79;53.24;96170.56;5034609;28;20191;-66
2021/05/21 08:19:40;;;;;;;1.00;0.80;;;;;;;14.92;53.18;96166.59;5033645;28;20186;-67
2021/05/21 08:22:06;;;;;;;0.60;0.60;;;;;;;14.97;53.46;96154.16;5034684;28;20532;-65
2021/05/21 08:24:31;;;;;;;1.87;0.83;;;;;;;14.98;53.34;96160.25;5034050;28;20620;-66
2021/05/21 08:26:57;;;;;;;0.80;0.70;;;;;;;15.02;54.06;96157.84;5033420;28;20179;-65
2021/05/21 08:29:23;;;;;;;0.60;0.60;;;;;;;15.06;54.21;96153.59;5034281;28;20253;-66
2021/05/21 08:31:48;;;;;;;1.93;1.17;;;;;;;14.98;54.50;96160.25;5033639;28;20190;-66
2021/05/21 08:34:14;;;;;;;1.00;1.00;;;;;;;15.07;54.71;96149.91;5033740;28;20195;-66
2021/05/21 08:36:39;;;;;;;0.80;0.80;;;;;;;15.01;55.33;96140.41;5033347;28;20186;-66
2021/05/21 08:39:05;;;;;;;0.97;0.70;;;;;;;15.08;55.75;96146.22;5015878;28;20241;-66
2021/05/21 08:41:32;;;;;;;0.77;0.77;;;;;;;15.10;55.17;96129.03;5017944;28;20600;-65
2021/05/21 08:43:57;;;;;;;0.70;0.70;;;;;;;15.01;55.66;96141.22;5033340;28;20202;-65
2021/05/21 08:46:28;;;;;;;1.30;0.90;;;;;;;15.14;54.38;96129.28;5034351;28;20214;-66
2021/05/21 08:49:00;;;;;;;0.97;0.70;;;;;;;15.06;53.37;96117.44;5033373;28;20186;-64
2021/05/21 08:51:27;;;;;;;0.70;0.70;;;;;;;14.94;53.52;96120.38;5033754;28;20186;-66
2021/05/21 08:53:53;;;;;;;0.80;0.80;;;;;;;14.84;53.82;96117.78;5032744;28;20198;-66
2021/05/21 08:56:19;;;;;;;0.87;0.87;;;;;;;14.88;54.16;96116.19;5013635;28;20670;-66
2021/05/21 08:58:44;;;;;;;0.83;0.83;;;;;;;14.85;54.22;96113.31;5032909;28;20187;-67
2021/05/21 09:01:10;;;;;;;0.70;0.70;;;;;;;14.81;54.18;96120.97;5033140;28;20230;-66
2021/05/21 09:03:36;;;;;;;0.60;0.60;;;;;;;14.93;53.96;96131.22;5033846;28;20265;-66
2021/05/21 09:08:45;;;;;;;0.80;0.80;;;;;;;14.69;54.14;96130.25;5016902;28;20185;-66
2021/05/21 09:11:42;;;;;;;0.77;0.77;;;;;;;14.68;53.44;96140.00;5033844;28;20195;-66
2021/05/21 09:14:16;;;;;;;0.70;0.70;;;;;;;14.66;53.05;96152.66;5013468;28;20198;-66
2021/05/21 09:16:44;;;;;;;1.90;0.60;;;;;;;14.73;53.01;96141.84;5032769;28;20294;-66
2021/05/21 09:19:20;;;;;;;0.70;0.70;;;;;;;14.76;53.30;96149.22;5033341;28;20581;-66
2021/05/21 09:21:52;;;;;;;2.30;0.87;;;;;;;14.79;53.38;96157.38;5031373;28;20209;-66
2021/05/21 09:24:30;;;;;;;0.77;0.70;;;;;;;14.73;53.99;96152.38;5033118;28;20186;-66
2021/05/21 09:26:57;;;;;;;3.50;0.90;;;;;;;14.77;54.00;96174.53;5014309;28;20704;-66
2021/05/21 09:29:39;;;;;;;0.70;0.70;;;;;;;14.84;53.94;96169.78;5033227;28;20558;-66
2021/05/21 09:32:34;;;;;;;3.60;0.70;;;;;;;14.81;54.06;96184.31;5032671;28;20707;-67
2021/05/21 09:35:13;;;;;;;0.60;0.60;;;;;;;14.77;54.20;96170.03;5011642;28;20273;-66
2021/05/21 09:37:55;;;;;;;0.50;0.50;;;;;;;14.76;54.63;96181.69;5032858;28;20186;-66
2021/05/21 09:40:22;;;;;;;0.50;0.50;;;;;;;14.74;54.59;96164.53;5015470;28;20189;-66
2021/05/21 09:43:03;;;;;;;1.00;0.60;;;;;;;14.71;54.64;96162.44;5032095;28;20244;-67
2021/05/21 09:45:33;;;;;;;0.97;0.87;;;;;;;14.83;54.50;96160.25;5032549;28;20182;-66
2021/05/21 09:48:09;;;;;;;1.00;0.90;;;;;;;14.78;55.20;96155.81;5032069;28;20708;-67
2021/05/21 09:50:42;;;;;;;3.03;0.60;;;;;;;14.82;55.45;96138.38;5032867;28;20194;-66
2021/05/21 09:53:28;;;;;;;1.43;0.70;;;;;;;14.79;55.73;96138.13;5032866;28;20281;-66
2021/05/21 09:55:59;;;;;;;1.33;0.80;;;;;;;14.72;56.28;96145.53;5030402;28;20206;-67
2021/05/21 09:58:30;;;;;;;1.50;0.70;;;;;;;14.73;56.92;96145.25;5032348;28;20206;-66
2021/05/21 10:01:16;;;;;;;0.77;0.77;;;;;;;14.77;55.82;96148.94;5031115;28;20777;-66
2021/05/21 10:03:45;;;;;;;0.70;0.67;;;;;;;14.68;56.25;96163.75;5031694;28;20183;-66
2021/05/21 10:06:12;;;;;;;0.50;0.50;;;;;;;14.64;55.48;96161.91;5032517;28;20189;-66
2021/05/21 10:08:42;;;;;;;3.30;0.80;;;;;;;14.68;55.99;96158.47;5032094;28;20598;-66
2021/05/21 10:11:08;;;;;;;0.80;0.70;;;;;;;14.71;56.36;96150.00;5032443;28;20175;-66
2021/05/21 10:13:34;;;;;;;1.67;0.57;;;;;;;14.73;56.00;96181.41;5014483;28;20526;-66
2021/05/21 10:16:00;;;;;;;0.83;0.70;;;;;;;14.78;55.35;96181.38;5031042;28;20852;-66
2021/05/21 10:18:27;;;;;;;0.87;0.60;;;;;;;14.71;55.05;96199.38;5032152;28;20186;-65
2021/05/21 10:20:55;;;;;;;1.63;0.70;;;;;;;14.64;55.39;96178.53;5031087;28;20264;-65
2021/05/21 10:23:24;;;;;;;0.60;0.60;;;;;;;14.63;55.28;96174.31;5032275;28;20201;-65
2021/05/21 10:25:54;;;;;;;0.60;0.60;;;;;;;14.61;55.33;96176.41;5028661;28;20183;-65
2021/05/21 10:28:24;;;;;;;0.50;0.50;;;;;;;14.74;55.62;96180.34;5032526;28;20271;-65
2021/05/21 10:30:50;;;;;;;0.50;0.50;;;;;;;14.84;55.49;96181.13;5013384;28;20193;-67
2021/05/21 10:33:28;;;;;;;0.60;0.60;;;;;;;14.93;55.66;96168.19;5031399;28;20214;-66
2021/05/21 10:36:19;;;;;;;0.60;0.60;;;;;;;14.98;55.62;96168.16;5013135;28;20657;-66
2021/05/21 10:39:08;;;;;;;1.23;0.70;;;;;;;14.99;55.95;96172.34;5017795;28;20186;-66
2021/05/21 10:41:56;;;;;;;0.60;0.60;;;;;;;15.09;55.97;96185.53;5030972;28;20206;-66
2021/05/21 10:44:23;;;;;;;1.10;0.80;;;;;;;15.09;56.04;96192.66;5014419;28;20182;-66
2021/05/21 10:46:51;;;;;;;1.50;0.70;;;;;;;15.10;56.43;96192.38;5013370;28;20182;-66
2021/05/21 10:49:27;;;;;;;0.70;0.70;;;;;;;15.22;56.30;96192.88;5021276;28;20215;-66
2021/05/21 10:52:00;;;;;;;0.70;0.70;;;;;;;15.30;55.94;96188.88;5016516;28;20240;-65
2021/05/21 10:54:36;;;;;;;0.70;0.70;;;;;;;15.15;56.30;96189.75;5031500;28;20178;-65
2021/05/21 10:57:10;;;;;;;0.50;0.50;;;;;;;15.24;55.80;96190.75;5030391;28;20213;-66
2021/05/21 11:00:00;;;;;;;0.67;0.67;;;;;;;15.46;55.47;96190.38;5030423;28;20177;-65
2021/05/21 11:02:48;;;;;;;0.67;0.67;;;;;;;15.47;55.03;96199.09;5018457;28;20250;-66
2021/05/21 11:05:27;;;;;;;0.83;0.60;;;;;;;15.53;55.43;96203.34;5030755;28;20258;-65
2021/05/21 11:08:02;;;;;;;0.50;0.50;;;;;;;15.63;55.09;96200.63;5030125;28;20194;-65
2021/05/21 11:10:41;;;;;;;0.60;0.60;;;;;;;15.78;53.97;96201.34;5028691;28;20262;-64
2021/05/21 11:13:12;;;;;;;0.60;0.60;;;;;;;15.81;54.10;96215.88;5030777;28;20179;-64
2021/05/21 11:15:42;;;;;;;0.60;0.60;;;;;;;15.93;53.08;96213.69;5031618;28;20588;-64
2021/05/21 11:18:17;;;;;;;0.57;0.57;;;;;;;15.92;53.30;96219.25;5030334;28;20186;-64
2021/05/21 11:20:55;;;;;;;0.70;0.70;;;;;;;15.97;53.32;96222.66;5030951;28;20166;-64
2021/05/21 11:23:27;;;;;;;2.13;0.60;;;;;;;15.97;53.37;96224.50;5012045;28;20663;-64
2021/05/21 11:26:14;;;;;;;0.60;0.60;;;;;;;15.82;53.58;96214.81;5027289;28;20185;-64
2021/05/21 11:28:46;;;;;;;0.50;0.50;;;;;;;15.91;53.24;96215.81;5031189;28;20170;-64
2021/05/21 11:31:14;;;;;;;0.73;0.60;;;;;;;16.02;52.63;96206.75;5030819;28;20175;-64
2021/05/21 11:33:40;;;;;;;0.40;0.40;;;;;;;15.95;52.49;96203.63;5031367;28;20206;-64
2021/05/21 11:36:07;;;;;;;0.50;0.50;;;;;;;16.30;52.21;96215.78;5030102;28;21031;-64
2021/05/21 11:38:34;;;;;;;0.40;0.40;;;;;;;16.50;51.96;96225.41;5013123;28;20232;-64